Time;durP1;ratioP1;P1;durP2;ratioP2;P2;SDS_P1;SDS_P2;PMS_P1;PMS_P2;Temp;Humidity;BMP_temperature;BMP_pressure;BME280_temperature;BME280_humidity;BME280_pressure;Samples;Min_cycle;Max_cycle;Signal;HPM_P1;HPM_P2
2022/01/29 00:00:31;;;;;;;32.30;15.88;;;;;;;;;;5035816;28;20025;-54
2022/01/29 00:02:57;;;;;;;35.70;17.13;;;;;;;;;;5036150;28;20045;-61
2022/01/29 00:05:24;;;;;;;42.08;21.30;;;;;;;;;;5036051;28;20022;-60
2022/01/29 00:07:50;;;;;;;40.35;20.27;;;;;;;;;;5035637;28;20017;-60
2022/01/29 00:10:16;;;;;;;37.80;18.38;;;;;;;;;;5035644;28;20030;-60
2022/01/29 00:12:43;;;;;;;33.10;15.25;;;;;;;;;;5036231;28;20029;-59
2022/01/29 00:15:11;;;;;;;13.55;8.30;;;;;;;;;;5035683;28;20109;-61
2022/01/29 00:17:37;;;;;;;18.83;7.78;;;;;;;;;;5035631;28;20385;-61
2022/01/29 00:20:04;;;;;;;17.45;9.07;;;;;;;;;;5035841;28;20049;-59
2022/01/29 00:22:30;;;;;;;11.27;6.68;;;;;;;;;;5035449;28;20120;-60
2022/01/29 00:24:57;;;;;;;14.93;8.10;;;;;;;;;;5035802;28;20025;-60
2022/01/29 00:27:26;;;;;;;15.00;7.45;;;;;;;;;;5035903;28;20026;-61
2022/01/29 00:29:52;;;;;;;14.80;7.03;;;;;;;;;;5035034;28;20489;-59
2022/01/29 00:32:18;;;;;;;13.93;6.35;;;;;;;;;;5035582;28;20040;-60
2022/01/29 00:34:44;;;;;;;12.25;6.10;;;;;;;;;;5035662;28;20045;-58
2022/01/29 00:37:11;;;;;;;9.88;5.65;;;;;;;;;;5034988;28;20462;-62
2022/01/29 00:39:37;;;;;;;11.43;5.53;;;;;;;;;;5035298;28;20388;-57
2022/01/29 00:42:04;;;;;;;9.93;5.38;;;;;;;;;;5034741;28;20151;-59
2022/01/29 00:44:30;;;;;;;12.10;4.82;;;;;;;;;;5035163;28;20017;-61
2022/01/29 00:46:56;;;;;;;9.90;4.97;;;;;;;;;;5035380;28;20022;-60
2022/01/29 00:49:22;;;;;;;11.55;6.15;;;;;;;;;;5035215;28;20032;-57
2022/01/29 00:51:48;;;;;;;13.50;6.00;;;;;;;;;;5034824;28;20028;-58
2022/01/29 00:54:14;;;;;;;16.00;6.65;;;;;;;;;;5034991;28;20025;-61
2022/01/29 00:56:41;;;;;;;13.77;6.00;;;;;;;;;;5034911;28;20024;-59
2022/01/29 00:59:07;;;;;;;13.00;5.88;;;;;;;;;;5035161;28;20033;-62
2022/01/29 01:01:33;;;;;;;22.02;8.05;;;;;;;;;;5035251;28;20042;-59
2022/01/29 01:03:59;;;;;;;15.80;6.00;;;;;;;;;;5034756;28;20128;-60
2022/01/29 01:06:25;;;;;;;9.52;4.38;;;;;;;;;;5034597;28;20022;-62
2022/01/29 01:08:51;;;;;;;15.95;6.85;;;;;;;;;;5035212;28;20039;-61
2022/01/29 01:11:18;;;;;;;10.98;5.07;;;;;;;;;;5033999;28;20029;-58
2022/01/29 01:13:44;;;;;;;13.18;6.55;;;;;;;;;;5034090;28;20017;-59
2022/01/29 01:16:10;;;;;;;19.10;7.75;;;;;;;;;;5033366;28;20034;-61
2022/01/29 01:18:36;;;;;;;11.82;5.80;;;;;;;;;;5034088;28;20091;-60
2022/01/29 01:21:02;;;;;;;10.57;5.30;;;;;;;;;;5034382;28;20508;-58
2022/01/29 01:23:28;;;;;;;12.52;4.82;;;;;;;;;;5034950;28;20408;-57
2022/01/29 01:25:55;;;;;;;11.82;4.80;;;;;;;;;;5034022;28;20481;-60
2022/01/29 01:28:21;;;;;;;9.65;4.97;;;;;;;;;;5034486;28;20030;-59
2022/01/29 01:30:47;;;;;;;11.30;5.47;;;;;;;;;;5034246;28;20029;-56
2022/01/29 01:33:13;;;;;;;12.93;5.10;;;;;;;;;;5034168;28;20025;-61
2022/01/29 01:35:45;;;;;;;15.07;5.72;;;;;;;;;;5034158;28;20524;-58
2022/01/29 01:38:19;;;;;;;12.40;5.40;;;;;;;;;;5034737;28;20029;-60
2022/01/29 01:40:51;;;;;;;12.65;6.45;;;;;;;;;;5033669;28;20033;-58
2022/01/29 01:43:17;;;;;;;14.23;6.53;;;;;;;;;;5034335;28;20466;-58
2022/01/29 01:45:44;;;;;;;12.85;6.13;;;;;;;;;;5033850;28;20030;-58
2022/01/29 01:48:10;;;;;;;12.10;5.95;;;;;;;;;;5034130;28;20164;-61
2022/01/29 01:50:37;;;;;;;17.63;8.70;;;;;;;;;;5033914;28;20474;-62
2022/01/29 01:53:04;;;;;;;13.77;6.65;;;;;;;;;;5033349;28;20471;-59
2022/01/29 01:55:30;;;;;;;15.35;7.93;;;;;;;;;;5033146;28;20017;-61
2022/01/29 01:57:57;;;;;;;14.05;7.53;;;;;;;;;;5033834;28;20113;-59
2022/01/29 02:00:24;;;;;;;14.25;6.68;;;;;;;;;;5033292;28;20021;-62
2022/01/29 02:02:50;;;;;;;30.60;10.23;;;;;;;;;;5034422;28;20442;-61
2022/01/29 02:05:16;;;;;;;14.32;7.47;;;;;;;;;;5033759;28;20443;-57
2022/01/29 02:07:42;;;;;;;18.42;7.75;;;;;;;;;;5033350;28;20018;-59
2022/01/29 02:10:11;;;;;;;16.88;7.20;;;;;;;;;;5033933;28;20354;-59
2022/01/29 02:12:46;;;;;;;13.35;6.47;;;;;;;;;;5033628;28;20533;-58
2022/01/29 02:15:14;;;;;;;8.50;4.93;;;;;;;;;;5033351;28;20470;-58
2022/01/29 02:17:40;;;;;;;9.85;5.63;;;;;;;;;;5033835;28;20017;-58
2022/01/29 02:20:07;;;;;;;11.95;5.55;;;;;;;;;;5033523;28;20097;-59
2022/01/29 02:22:33;;;;;;;15.27;6.65;;;;;;;;;;5033460;28;20025;-59
2022/01/29 02:24:59;;;;;;;13.10;6.13;;;;;;;;;;5033493;28;20021;-61
2022/01/29 02:27:25;;;;;;;13.27;5.85;;;;;;;;;;5033089;28;20021;-59
2022/01/29 02:29:51;;;;;;;14.82;6.38;;;;;;;;;;5033450;28;20025;-59
2022/01/29 02:32:18;;;;;;;21.58;8.40;;;;;;;;;;5033397;28;20074;-60
2022/01/29 02:34:44;;;;;;;18.65;6.93;;;;;;;;;;5033125;28;20033;-58
2022/01/29 02:37:11;;;;;;;13.10;5.47;;;;;;;;;;5033219;28;20100;-62
2022/01/29 02:39:37;;;;;;;11.35;4.70;;;;;;;;;;5033512;28;20024;-60
2022/01/29 02:42:03;;;;;;;14.15;5.80;;;;;;;;;;5033151;28;20044;-58
2022/01/29 02:44:31;;;;;;;13.73;5.20;;;;;;;;;;5033188;28;20033;-59
2022/01/29 02:47:14;;;;;;;16.25;6.20;;;;;;;;;;5033205;28;20021;-62
2022/01/29 02:49:40;;;;;;;10.38;3.97;;;;;;;;;;5033223;28;20087;-59
2022/01/29 02:52:06;;;;;;;13.95;4.70;;;;;;;;;;5033525;28;20037;-60
2022/01/29 02:54:34;;;;;;;14.77;5.50;;;;;;;;;;5033469;28;20022;-60
2022/01/29 02:57:00;;;;;;;8.40;3.55;;;;;;;;;;5032938;28;20028;-59
2022/01/29 02:59:26;;;;;;;7.80;3.72;;;;;;;;;;5033331;28;20026;-60
2022/01/29 03:01:53;;;;;;;7.90;3.67;;;;;;;;;;5033323;28;20084;-60
2022/01/29 03:04:19;;;;;;;16.52;6.20;;;;;;;;;;5031875;28;20050;-58
2022/01/29 03:06:45;;;;;;;7.40;3.13;;;;;;;;;;5036834;28;20031;-60
2022/01/29 03:09:11;;;;;;;12.38;4.75;;;;;;;;;;5037259;28;20038;-62
2022/01/29 03:11:37;;;;;;;6.82;3.30;;;;;;;;;;5036900;28;20025;-58
2022/01/29 03:14:04;;;;;;;14.95;4.43;;;;;;;;;;5036835;28;20104;-60
2022/01/29 03:16:30;;;;;;;10.63;3.60;;;;;;;;;;5036465;28;20022;-59
2022/01/29 03:18:56;;;;;;;11.02;4.20;;;;;;;;;;5036728;28;20032;-62
2022/01/29 03:21:22;;;;;;;8.45;2.95;;;;;;;;;;5036895;28;20033;-60
2022/01/29 03:23:48;;;;;;;14.88;5.43;;;;;;;;;;5036687;28;20405;-62
2022/01/29 03:26:14;;;;;;;8.60;4.07;;;;;;;;;;5036910;28;20385;-61
2022/01/29 03:28:41;;;;;;;6.35;3.72;;;;;;;;;;5036841;28;20021;-61
2022/01/29 03:31:07;;;;;;;9.23;3.88;;;;;;;;;;5036260;28;20030;-58
2022/01/29 03:33:33;;;;;;;8.43;3.78;;;;;;;;;;5036542;28;20026;-59
2022/01/29 03:35:59;;;;;;;12.38;5.95;;;;;;;;;;5036641;28;20462;-58
2022/01/29 03:38:25;;;;;;;6.82;4.40;;;;;;;;;;5036411;28;20022;-59
2022/01/29 03:40:52;;;;;;;13.00;5.10;;;;;;;;;;5036299;28;20044;-61
2022/01/29 03:43:27;;;;;;;8.90;4.10;;;;;;;;;;5036521;28;20025;-61
2022/01/29 03:45:54;;;;;;;7.88;3.72;;;;;;;;;;5036244;28;20029;-58
2022/01/29 03:48:20;;;;;;;6.70;3.58;;;;;;;;;;5036641;28;20029;-61
2022/01/29 03:50:46;;;;;;;16.63;6.63;;;;;;;;;;5036730;28;20031;-61
2022/01/29 03:53:12;;;;;;;9.07;4.43;;;;;;;;;;5036134;28;20026;-59
2022/01/29 03:55:38;;;;;;;7.75;3.92;;;;;;;;;;5037044;28;20469;-60
2022/01/29 03:58:05;;;;;;;9.55;3.58;;;;;;;;;;5036683;28;20370;-61
2022/01/29 04:00:31;;;;;;;9.20;3.58;;;;;;;;;;5035984;28;20025;-61
2022/01/29 04:02:57;;;;;;;20.83;7.93;;;;;;;;;;5035805;28;20057;-62
2022/01/29 04:05:26;;;;;;;13.63;5.43;;;;;;;;;;5035740;28;20021;-58
2022/01/29 04:07:52;;;;;;;15.93;5.00;;;;;;;;;;5036042;28;20033;-60
2022/01/29 04:10:20;;;;;;;12.20;4.03;;;;;;;;;;5036108;28;20034;-61
2022/01/29 04:12:50;;;;;;;11.07;4.22;;;;;;;;;;5035689;28;20425;-59
2022/01/29 04:15:16;;;;;;;7.32;3.78;;;;;;;;;;5036235;28;20057;-59
2022/01/29 04:17:42;;;;;;;10.77;4.20;;;;;;;;;;5034627;28;20482;-60
2022/01/29 04:20:08;;;;;;;13.30;5.57;;;;;;;;;;5035359;28;20028;-62
2022/01/29 04:22:35;;;;;;;12.95;5.43;;;;;;;;;;5035496;28;20029;-59
2022/01/29 04:25:01;;;;;;;6.70;3.58;;;;;;;;;;5035862;28;20405;-60
2022/01/29 04:27:36;;;;;;;21.30;7.80;;;;;;;;;;5035006;28;20497;-58
2022/01/29 04:30:08;;;;;;;11.95;4.22;;;;;;;;;;5035760;28;20437;-59
2022/01/29 04:35:07;;;;;;;19.42;7.20;;;;;;;;;;5035339;28;20033;-60
2022/01/29 04:37:33;;;;;;;23.15;7.80;;;;;;;;;;5035356;28;20021;-62
2022/01/29 04:39:59;;;;;;;14.20;5.25;;;;;;;;;;5035258;28;20021;-60
2022/01/29 04:42:26;;;;;;;12.43;4.78;;;;;;;;;;5035070;28;20034;-60
2022/01/29 04:44:52;;;;;;;11.75;4.25;;;;;;;;;;5035329;28;20466;-60
2022/01/29 04:47:18;;;;;;;20.40;7.28;;;;;;;;;;5035401;28;20033;-57
2022/01/29 04:49:44;;;;;;;20.23;8.10;;;;;;;;;;5035062;28;20026;-58
2022/01/29 04:52:10;;;;;;;13.02;4.68;;;;;;;;;;5035302;28;20026;-61
2022/01/29 04:54:36;;;;;;;11.35;4.07;;;;;;;;;;5034993;28;20021;-61
2022/01/29 04:57:03;;;;;;;8.27;3.35;;;;;;;;;;5035502;28;20052;-60
2022/01/29 04:59:29;;;;;;;11.18;4.63;;;;;;;;;;5034710;28;20363;-59
2022/01/29 05:01:55;;;;;;;8.55;3.60;;;;;;;;;;5034806;28;20095;-58
2022/01/29 05:04:21;;;;;;;8.65;3.38;;;;;;;;;;5034669;28;20478;-58
2022/01/29 05:06:47;;;;;;;14.90;4.05;;;;;;;;;;5035268;28;20021;-61
2022/01/29 05:09:14;;;;;;;28.10;9.57;;;;;;;;;;5034681;28;20024;-58
2022/01/29 05:11:43;;;;;;;10.98;4.43;;;;;;;;;;5034577;28;20029;-59
2022/01/29 05:14:17;;;;;;;14.25;4.82;;;;;;;;;;5034856;28;20481;-57
2022/01/29 05:26:50;;;;;;;16.75;4.65;;;;;;;;;;5034389;28;20571;-61
2022/01/29 05:27:49;;;;;;;13.05;5.32;;;;;;;;;;5034213;28;20024;-60
2022/01/29 05:30:16;;;;;;;19.55;6.32;;;;;;;;;;5033983;28;20023;-61
2022/01/29 05:32:42;;;;;;;7.72;3.80;;;;;;;;;;5034550;28;20156;-57
2022/01/29 05:35:08;;;;;;;7.40;3.67;;;;;;;;;;5034427;28;20040;-60
2022/01/29 05:37:34;;;;;;;10.13;4.70;;;;;;;;;;5033693;28;20536;-60
2022/01/29 05:40:01;;;;;;;15.77;5.35;;;;;;;;;;5034327;28;20025;-60
2022/01/29 05:42:27;;;;;;;18.08;5.70;;;;;;;;;;5034241;28;20039;-58
2022/01/29 05:44:53;;;;;;;12.95;5.85;;;;;;;;;;5034019;28;20025;-59
2022/01/29 05:47:19;;;;;;;15.95;5.30;;;;;;;;;;5034229;28;20026;-61
2022/01/29 05:49:45;;;;;;;11.80;4.43;;;;;;;;;;5033906;28;20465;-59
2022/01/29 05:52:11;;;;;;;16.70;4.75;;;;;;;;;;5033423;28;20040;-58
2022/01/29 05:54:37;;;;;;;26.67;8.88;;;;;;;;;;5034207;28;20024;-60
2022/01/29 05:57:04;;;;;;;16.88;5.07;;;;;;;;;;5034379;28;20029;-60
2022/01/29 05:59:34;;;;;;;16.83;6.15;;;;;;;;;;5033778;28;20031;-61
2022/01/29 06:02:01;;;;;;;20.40;6.18;;;;;;;;;;5033794;28;20061;-59
2022/01/29 06:04:27;;;;;;;27.17;10.75;;;;;;;;;;5033971;28;20025;-57
2022/01/29 06:06:53;;;;;;;15.88;5.38;;;;;;;;;;5033957;28;20477;-60
2022/01/29 06:09:19;;;;;;;10.95;4.40;;;;;;;;;;5033896;28;20058;-60
2022/01/29 06:11:45;;;;;;;16.60;5.22;;;;;;;;;;5032651;28;20028;-60
2022/01/29 06:14:12;;;;;;;8.75;4.03;;;;;;;;;;5033884;28;20071;-61
2022/01/29 06:16:38;;;;;;;10.80;4.55;;;;;;;;;;5033891;28;20030;-61
2022/01/29 06:19:05;;;;;;;14.70;6.15;;;;;;;;;;5033813;28;20112;-61
2022/01/29 06:21:31;;;;;;;13.10;5.80;;;;;;;;;;5033906;28;20381;-61
2022/01/29 06:23:58;;;;;;;13.20;6.05;;;;;;;;;;5033736;28;20053;-63
2022/01/29 06:26:24;;;;;;;19.20;9.10;;;;;;;;;;5033397;28;20414;-59
2022/01/29 06:28:51;;;;;;;15.93;5.78;;;;;;;;;;5034204;28;20377;-60
2022/01/29 06:31:17;;;;;;;13.93;6.10;;;;;;;;;;5033661;28;20030;-61
2022/01/29 06:33:43;;;;;;;17.80;6.97;;;;;;;;;;5033623;28;20061;-61
2022/01/29 06:36:10;;;;;;;13.90;6.60;;;;;;;;;;5033520;28;20032;-59
2022/01/29 06:38:36;;;;;;;19.95;6.70;;;;;;;;;;5033609;28;20107;-60
2022/01/29 06:41:03;;;;;;;17.58;8.82;;;;;;;;;;5034523;28;20113;-60
2022/01/29 06:43:29;;;;;;;17.60;6.70;;;;;;;;;;5037713;28;20038;-57
2022/01/29 06:45:55;;;;;;;14.27;6.15;;;;;;;;;;5037285;28;20025;-61
2022/01/29 06:48:22;;;;;;;15.48;6.15;;;;;;;;;;5037304;28;20028;-60
2022/01/29 06:50:48;;;;;;;14.32;5.70;;;;;;;;;;5037540;28;20374;-61
2022/01/29 06:53:14;;;;;;;12.52;4.80;;;;;;;;;;5037534;28;20025;-61
2022/01/29 06:55:40;;;;;;;9.27;4.55;;;;;;;;;;5037109;28;20354;-59
2022/01/29 06:58:06;;;;;;;8.52;4.00;;;;;;;;;;5037254;28;20032;-61
2022/01/29 07:00:32;;;;;;;8.80;4.13;;;;;;;;;;5036788;28;20074;-58
2022/01/29 07:02:59;;;;;;;10.15;3.95;;;;;;;;;;5036992;28;20095;-57
2022/01/29 07:05:25;;;;;;;9.20;3.95;;;;;;;;;;5037287;28;20035;-62
2022/01/29 07:07:52;;;;;;;18.98;6.35;;;;;;;;;;5036919;28;20017;-61
2022/01/29 07:10:18;;;;;;;20.45;7.45;;;;;;;;;;5036820;28;20026;-58
2022/01/29 07:12:44;;;;;;;15.35;7.65;;;;;;;;;;5036807;28;20470;-57
2022/01/29 07:15:12;;;;;;;21.38;8.02;;;;;;;;;;5036641;28;20351;-58
2022/01/29 07:17:38;;;;;;;19.05;8.25;;;;;;;;;;5037011;28;20033;-59
2022/01/29 07:20:05;;;;;;;19.58;7.75;;;;;;;;;;5036995;28;20515;-59
2022/01/29 07:22:31;;;;;;;17.08;6.80;;;;;;;;;;5036522;28;20083;-58
2022/01/29 07:24:57;;;;;;;13.43;6.20;;;;;;;;;;5036803;28;20023;-59
2022/01/29 07:27:24;;;;;;;9.95;5.25;;;;;;;;;;5036875;28;20027;-60
2022/01/29 07:29:50;;;;;;;14.77;5.32;;;;;;;;;;5036361;28;20378;-60
2022/01/29 07:32:16;;;;;;;13.27;4.90;;;;;;;;;;5037113;28;20033;-58
2022/01/29 07:34:42;;;;;;;16.77;6.05;;;;;;;;;;5036918;28;20096;-61
2022/01/29 07:37:08;;;;;;;11.60;5.50;;;;;;;;;;5036482;28;20120;-62
2022/01/29 07:39:34;;;;;;;12.43;5.90;;;;;;;;;;5036754;28;20450;-63
2022/01/29 07:42:01;;;;;;;12.35;5.18;;;;;;;;;;5036248;28;20032;-62
2022/01/29 07:44:27;;;;;;;10.52;4.93;;;;;;;;;;5036298;28;20029;-61
2022/01/29 07:46:53;;;;;;;14.43;6.03;;;;;;;;;;5036446;28;20021;-57
2022/01/29 07:49:19;;;;;;;17.33;6.03;;;;;;;;;;5036344;28;20053;-59
2022/01/29 07:51:46;;;;;;;13.40;5.45;;;;;;;;;;5036157;28;20108;-59
2022/01/29 07:54:12;;;;;;;12.07;4.82;;;;;;;;;;5036187;28;20024;-61
2022/01/29 07:56:38;;;;;;;19.38;5.97;;;;;;;;;;5036004;28;20026;-59
2022/01/29 07:59:04;;;;;;;16.05;4.53;;;;;;;;;;5036024;28;20026;-60
2022/01/29 08:01:31;;;;;;;14.75;6.03;;;;;;;;;;5035724;28;20484;-57
2022/01/29 08:03:57;;;;;;;14.35;6.78;;;;;;;;;;5035542;28;20113;-62
2022/01/29 08:06:26;;;;;;;14.27;6.20;;;;;;;;;;5035904;28;20083;-61
2022/01/29 08:08:52;;;;;;;11.40;5.65;;;;;;;;;;5035405;28;20018;-61
2022/01/29 08:11:18;;;;;;;18.33;5.22;;;;;;;;;;5035376;28;20048;-57
2022/01/29 08:13:46;;;;;;;14.27;5.32;;;;;;;;;;5035628;28;20030;-61
2022/01/29 08:16:13;;;;;;;9.95;4.75;;;;;;;;;;5035895;28;20422;-62
2022/01/29 08:18:41;;;;;;;16.67;6.05;;;;;;;;;;5035559;28;20552;-59
2022/01/29 08:21:07;;;;;;;10.02;4.30;;;;;;;;;;5035285;28;20037;-60
2022/01/29 08:23:34;;;;;;;13.80;4.88;;;;;;;;;;5035616;28;20026;-59
2022/01/29 08:26:00;;;;;;;14.90;5.38;;;;;;;;;;5035470;28;20031;-62
2022/01/29 08:28:26;;;;;;;16.50;5.75;;;;;;;;;;5035737;28;20032;-57
2022/01/29 08:30:52;;;;;;;13.27;5.90;;;;;;;;;;5035471;28;20075;-62
2022/01/29 08:33:18;;;;;;;12.10;5.82;;;;;;;;;;5034957;28;20017;-62
2022/01/29 08:35:48;;;;;;;14.52;6.05;;;;;;;;;;5035212;28;20057;-63
2022/01/29 08:38:14;;;;;;;13.38;6.28;;;;;;;;;;5035382;28;20022;-58
2022/01/29 08:40:41;;;;;;;14.05;5.75;;;;;;;;;;5034829;28;20497;-60
2022/01/29 08:43:07;;;;;;;12.02;5.68;;;;;;;;;;5035339;28;20470;-55
2022/01/29 08:45:34;;;;;;;14.40;5.63;;;;;;;;;;5035053;28;20026;-62
2022/01/29 08:48:00;;;;;;;13.85;6.05;;;;;;;;;;5034405;28;20083;-58
2022/01/29 08:50:26;;;;;;;9.35;5.50;;;;;;;;;;5034849;28;20022;-59
2022/01/29 08:52:52;;;;;;;13.25;5.90;;;;;;;;;;5034510;28;20029;-58
2022/01/29 08:55:19;;;;;;;15.57;6.03;;;;;;;;;;5032126;28;20097;-61
2022/01/29 08:57:45;;;;;;;15.13;6.30;;;;;;;;;;5034405;28;20021;-58
2022/01/29 09:00:12;;;;;;;15.70;7.00;;;;;;;;;;5034185;28;20470;-62
2022/01/29 09:02:39;;;;;;;15.88;6.55;;;;;;;;;;5034948;28;20057;-63
2022/01/29 09:05:05;;;;;;;16.60;6.32;;;;;;;;;;5034573;28;20026;-64
2022/01/29 09:07:31;;;;;;;13.15;6.30;;;;;;;;;;5034718;28;20013;-61
2022/01/29 09:09:58;;;;;;;17.20;6.15;;;;;;;;;;5035265;28;20079;-63
2022/01/29 09:12:24;;;;;;;20.55;8.73;;;;;;;;;;5034652;28;20061;-61
2022/01/29 09:14:50;;;;;;;15.43;6.30;;;;;;;;;;5034942;28;20470;-62
2022/01/29 09:17:16;;;;;;;12.60;5.20;;;;;;;;;;5034847;28;20415;-57
2022/01/29 09:19:42;;;;;;;13.70;5.10;;;;;;;;;;5034757;28;20378;-61
2022/01/29 09:22:09;;;;;;;10.35;3.88;;;;;;;;;;5034345;28;20466;-58
2022/01/29 09:24:35;;;;;;;13.32;6.20;;;;;;;;;;5034240;28;20109;-56
2022/01/29 09:27:01;;;;;;;13.85;5.00;;;;;;;;;;5034546;28;20021;-56
2022/01/29 09:29:27;;;;;;;9.00;4.80;;;;;;;;;;5033940;28;20477;-58
2022/01/29 09:31:53;;;;;;;15.93;6.40;;;;;;;;;;5034724;28;20098;-61
2022/01/29 09:34:20;;;;;;;9.55;5.53;;;;;;;;;;5034693;28;20033;-59
2022/01/29 09:36:46;;;;;;;14.15;7.05;;;;;;;;;;5034067;28;20462;-58
2022/01/29 09:39:12;;;;;;;12.65;5.28;;;;;;;;;;5034037;28;20026;-60
2022/01/29 09:41:42;;;;;;;7.03;4.13;;;;;;;;;;5032688;28;20029;-56
2022/01/29 09:44:08;;;;;;;14.05;5.85;;;;;;;;;;5030958;28;20401;-56
2022/01/29 09:46:35;;;;;;;9.60;4.85;;;;;;;;;;5033501;28;20485;-58
2022/01/29 09:49:01;;;;;;;10.13;4.00;;;;;;;;;;5032900;28;20458;-54
2022/01/29 09:51:27;;;;;;;10.10;4.82;;;;;;;;;;5033729;28;20029;-57
2022/01/29 09:53:54;;;;;;;8.45;4.95;;;;;;;;;;5033914;28;20481;-57
2022/01/29 09:56:20;;;;;;;8.70;3.65;;;;;;;;;;5033446;28;20021;-54
2022/01/29 09:58:46;;;;;;;14.00;4.25;;;;;;;;;;5033613;28;20359;-54
2022/01/29 10:01:13;;;;;;;10.43;4.25;;;;;;;;;;5032417;28;20084;-55
2022/01/29 10:03:39;;;;;;;9.82;4.57;;;;;;;;;;5032223;28;20104;-61
2022/01/29 10:06:05;;;;;;;12.52;5.15;;;;;;;;;;5033543;28;20026;-56
2022/01/29 10:08:42;;;;;;;16.63;5.47;;;;;;;;;;5033436;28;20032;-58
2022/01/29 10:11:19;;;;;;;11.77;5.30;;;;;;;;;;5031327;28;20060;-54
2022/01/29 10:13:45;;;;;;;11.57;4.32;;;;;;;;;;5031695;28;20097;-59
2022/01/29 10:16:12;;;;;;;10.73;3.55;;;;;;;;;;5032552;28;20048;-57
2022/01/29 10:18:39;;;;;;;14.70;6.20;;;;;;;;;;5032271;28;20025;-58
2022/01/29 10:21:12;;;;;;;13.95;4.80;;;;;;;;;;5033022;28;20021;-59
2022/01/29 10:23:39;;;;;;;9.75;3.70;;;;;;;;;;5031395;28;20025;-57
2022/01/29 10:26:07;;;;;;;10.57;5.75;;;;;;;;;;5032937;28;20025;-53
2022/01/29 10:28:33;;;;;;;13.25;6.03;;;;;;;;;;5033178;28;20490;-56
2022/01/29 10:31:04;;;;;;;10.98;5.10;;;;;;;;;;5032748;28;20022;-58
2022/01/29 10:33:30;;;;;;;12.50;4.70;;;;;;;;;;5028006;28;20406;-60
2022/01/29 10:35:57;;;;;;;9.45;3.90;;;;;;;;;;5032803;28;20022;-53
2022/01/29 10:38:26;;;;;;;15.00;4.57;;;;;;;;;;5032051;28;20175;-53
2022/01/29 10:41:14;;;;;;;15.75;6.10;;;;;;;;;;5032838;28;20040;-54
2022/01/29 10:43:59;;;;;;;12.63;4.85;;;;;;;;;;5018509;28;20029;-53
2022/01/29 10:46:27;;;;;;;10.30;4.72;;;;;;;;;;5029251;28;20044;-56
2022/01/29 10:48:53;;;;;;;8.38;4.18;;;;;;;;;;5032952;28;20032;-56
2022/01/29 10:51:19;;;;;;;15.13;4.90;;;;;;;;;;5032783;28;20382;-56
2022/01/29 10:53:45;;;;;;;7.93;3.75;;;;;;;;;;5032702;28;20104;-56
2022/01/29 10:56:11;;;;;;;7.18;3.75;;;;;;;;;;5032716;28;20032;-54
2022/01/29 10:58:41;;;;;;;8.05;2.95;;;;;;;;;;5032370;28;20029;-56
2022/01/29 11:01:14;;;;;;;6.25;2.92;;;;;;;;;;5032689;28;20026;-56
2022/01/29 11:03:40;;;;;;;8.93;3.47;;;;;;;;;;5032293;28;20076;-57
2022/01/29 11:06:08;;;;;;;8.50;3.47;;;;;;;;;;5032378;28;20021;-56
2022/01/29 11:08:34;;;;;;;12.10;4.97;;;;;;;;;;5032621;28;20024;-55
2022/01/29 11:11:01;;;;;;;9.05;4.13;;;;;;;;;;5032748;28;20070;-53
2022/01/29 11:13:28;;;;;;;11.60;5.15;;;;;;;;;;5032261;28;20021;-52
2022/01/29 11:21:19;;;;;;;14.90;6.75;;;;;;;;;;5069929;28;20948;-53
2022/01/29 11:23:46;;;;;;;14.68;6.72;;;;;;;;;;5070422;28;20033;-57
2022/01/29 11:26:12;;;;;;;9.07;4.90;;;;;;;;;;5070448;28;20035;-56
2022/01/29 11:28:38;;;;;;;12.20;4.35;;;;;;;;;;5070411;28;20193;-57
2022/01/29 11:31:22;;;;;;;10.15;5.15;;;;;;;;;;5071298;28;20025;-52
2022/01/29 11:34:12;;;;;;;8.48;4.57;;;;;;;;;;5070266;28;20029;-55
2022/01/29 11:36:47;;;;;;;7.68;4.43;;;;;;;;;;5068750;28;20369;-54
2022/01/29 11:39:19;;;;;;;10.20;4.82;;;;;;;;;;5070640;28;20029;-55
2022/01/29 11:41:45;;;;;;;9.57;4.35;;;;;;;;;;5070173;28;20081;-54
2022/01/29 11:44:28;;;;;;;12.60;5.35;;;;;;;;;;5070551;28;20027;-60
2022/01/29 11:46:54;;;;;;;8.93;5.22;;;;;;;;;;5070533;28;20020;-55
2022/01/29 11:49:22;;;;;;;9.35;5.05;;;;;;;;;;5070099;28;20031;-55
2022/01/29 11:51:50;;;;;;;8.95;4.93;;;;;;;;;;5070402;28;20032;-57
2022/01/29 11:54:17;;;;;;;13.38;4.88;;;;;;;;;;5070374;28;20032;-58
2022/01/29 11:56:44;;;;;;;10.45;5.28;;;;;;;;;;5070347;28;20099;-52
2022/01/29 11:59:24;;;;;;;10.93;4.85;;;;;;;;;;5069701;28;20533;-58
2022/01/29 12:01:52;;;;;;;13.50;4.82;;;;;;;;;;5069368;28;20025;-57
2022/01/29 12:04:19;;;;;;;14.70;5.47;;;;;;;;;;5070009;28;20458;-57
2022/01/29 12:07:11;;;;;;;14.38;5.57;;;;;;;;;;5069873;28;20016;-56
2022/01/29 12:10:08;;;;;;;11.38;4.95;;;;;;;;;;5069146;28;20111;-53
2022/01/29 12:12:38;;;;;;;9.70;4.35;;;;;;;;;;5064995;28;20432;-55
2022/01/29 12:15:10;;;;;;;10.98;4.95;;;;;;;;;;5069340;28;20470;-54
2022/01/29 12:17:47;;;;;;;10.48;4.75;;;;;;;;;;5068565;28;20111;-55
2022/01/29 12:20:31;;;;;;;9.10;4.80;;;;;;;;;;5068352;28;20045;-57
2022/01/29 12:22:59;;;;;;;6.53;3.80;;;;;;;;;;5069128;28;20106;-57
2022/01/29 12:25:27;;;;;;;14.82;4.53;;;;;;;;;;5069275;28;20036;-58
2022/01/29 12:27:55;;;;;;;7.30;4.18;;;;;;;;;;5069374;28;20017;-55
2022/01/29 12:30:35;;;;;;;10.05;4.15;;;;;;;;;;5068614;28;20481;-55
2022/01/29 12:33:01;;;;;;;9.55;4.68;;;;;;;;;;5055788;28;20025;-51
2022/01/29 12:35:34;;;;;;;9.65;4.53;;;;;;;;;;5055726;28;20377;-56
2022/01/29 12:38:00;;;;;;;7.40;4.45;;;;;;;;;;5055694;28;20473;-53
2022/01/29 12:40:27;;;;;;;9.50;4.90;;;;;;;;;;5055961;28;20033;-58
2022/01/29 12:42:58;;;;;;;7.85;4.38;;;;;;;;;;5056314;28;20385;-58
2022/01/29 12:45:26;;;;;;;11.02;4.60;;;;;;;;;;5055881;28;20025;-55
2022/01/29 12:48:05;;;;;;;11.90;6.65;;;;;;;;;;5055521;28;20079;-56
2022/01/29 12:50:31;;;;;;;11.63;6.15;;;;;;;;;;5054599;28;20025;-57
2022/01/29 12:53:08;;;;;;;6.18;3.72;;;;;;;;;;5055883;28;20033;-53
2022/01/29 12:55:34;;;;;;;6.72;4.10;;;;;;;;;;5055524;28;20078;-55
2022/01/29 12:58:00;;;;;;;11.82;4.88;;;;;;;;;;5055313;28;20021;-58
2022/01/29 13:00:27;;;;;;;9.57;4.80;;;;;;;;;;5055438;28;20061;-58
2022/01/29 13:02:53;;;;;;;11.75;5.65;;;;;;;;;;5055374;28;20538;-58
2022/01/29 13:05:20;;;;;;;6.65;3.67;;;;;;;;;;5055365;28;20036;-57
2022/01/29 13:07:46;;;;;;;7.22;3.38;;;;;;;;;;5055382;28;20112;-55
2022/01/29 13:10:12;;;;;;;12.13;5.50;;;;;;;;;;5055834;28;20477;-56
2022/01/29 13:12:39;;;;;;;9.85;4.78;;;;;;;;;;5054070;28;20431;-57
2022/01/29 13:15:06;;;;;;;16.35;5.35;;;;;;;;;;5055267;28;20392;-58
2022/01/29 13:17:33;;;;;;;8.88;4.45;;;;;;;;;;5055245;28;20036;-61
2022/01/29 13:20:01;;;;;;;9.93;4.03;;;;;;;;;;5055231;28;20099;-50
2022/01/29 13:22:28;;;;;;;8.63;4.57;;;;;;;;;;5055079;28;20469;-54
2022/01/29 13:25:01;;;;;;;10.07;4.55;;;;;;;;;;5055495;28;20082;-57
2022/01/29 13:27:30;;;;;;;8.27;3.88;;;;;;;;;;5055160;28;20021;-51
2022/01/29 13:30:12;;;;;;;11.50;6.10;;;;;;;;;;5054928;28;20048;-56
2022/01/29 13:32:39;;;;;;;17.35;7.95;;;;;;;;;;5054320;28;20185;-55
2022/01/29 13:35:22;;;;;;;16.45;7.13;;;;;;;;;;5053766;28;20017;-55
2022/01/29 13:37:58;;;;;;;18.00;7.15;;;;;;;;;;5053946;28;20021;-54
2022/01/29 13:40:34;;;;;;;15.93;6.78;;;;;;;;;;5052073;28;20079;-57
2022/01/29 13:43:01;;;;;;;16.95;8.43;;;;;;;;;;5053239;28;20018;-53
2022/01/29 13:45:30;;;;;;;11.98;6.32;;;;;;;;;;5053899;28;20021;-58
2022/01/29 13:48:07;;;;;;;10.05;5.15;;;;;;;;;;5053424;28;20170;-56
2022/01/29 13:50:33;;;;;;;10.30;5.13;;;;;;;;;;5053007;28;20528;-53
2022/01/29 13:53:10;;;;;;;5.85;3.38;;;;;;;;;;5053890;28;20112;-55
2022/01/29 13:55:38;;;;;;;9.07;3.78;;;;;;;;;;5054982;28;20079;-57
2022/01/29 13:58:05;;;;;;;10.65;5.00;;;;;;;;;;5052237;28;20473;-55
2022/01/29 14:00:50;;;;;;;9.55;5.05;;;;;;;;;;5053092;28;20480;-55
2022/01/29 14:03:16;;;;;;;18.63;7.15;;;;;;;;;;5052419;28;20028;-55
2022/01/29 14:05:42;;;;;;;13.65;6.97;;;;;;;;;;5052793;28;20355;-56
2022/01/29 14:08:16;;;;;;;16.52;7.55;;;;;;;;;;5053645;28;20509;-53
2022/01/29 14:10:42;;;;;;;12.73;5.72;;;;;;;;;;5051085;28;20037;-54
2022/01/29 14:13:08;;;;;;;12.15;6.18;;;;;;;;;;5053946;28;20100;-56
2022/01/29 14:15:35;;;;;;;11.65;4.97;;;;;;;;;;5054265;28;20017;-56
2022/01/29 14:18:01;;;;;;;13.13;5.82;;;;;;;;;;5054053;28;20048;-57
2022/01/29 14:20:28;;;;;;;10.43;5.65;;;;;;;;;;5053394;28;20088;-53
2022/01/29 14:22:54;;;;;;;11.77;5.82;;;;;;;;;;5054159;28;20031;-56
2022/01/29 14:25:21;;;;;;;10.65;5.13;;;;;;;;;;5054351;28;20071;-52
2022/01/29 14:27:48;;;;;;;13.75;6.03;;;;;;;;;;5053909;28;20116;-51
2022/01/29 14:30:14;;;;;;;11.50;6.00;;;;;;;;;;5054421;28;20100;-54
2022/01/29 14:32:41;;;;;;;11.55;5.43;;;;;;;;;;5054044;28;20056;-52
2022/01/29 14:35:08;;;;;;;14.25;6.03;;;;;;;;;;5054006;28;20096;-55
2022/01/29 14:37:35;;;;;;;26.30;9.15;;;;;;;;;;5053711;28;20021;-54
2022/01/29 14:40:05;;;;;;;17.02;7.45;;;;;;;;;;5052964;28;20033;-56
2022/01/29 14:42:35;;;;;;;31.03;12.57;;;;;;;;;;5051815;28;20037;-53
2022/01/29 14:45:01;;;;;;;31.30;12.10;;;;;;;;;;5052466;28;20079;-55
2022/01/29 14:47:28;;;;;;;15.65;6.75;;;;;;;;;;5052113;28;20014;-51
2022/01/29 14:49:55;;;;;;;29.30;11.25;;;;;;;;;;5049838;28;20021;-52
2022/01/29 14:52:23;;;;;;;14.40;6.63;;;;;;;;;;5052457;28;20013;-52